sensor_id;sensor_type;location;lat;lon;timestamp;pressure;altitude;pressure_sealevel;temperature;humidity
80566;BME280;69915;54.862;10.730;2023-06-14T00:00:37;101982.97;;;12.22;82.54
80566;BME280;69915;54.862;10.730;2023-06-14T00:03:07;101975.25;;;12.14;81.57
80566;BME280;69915;54.862;10.730;2023-06-14T00:05:37;101976.13;;;12.20;83.52
80566;BME280;69915;54.862;10.730;2023-06-14T00:08:09;101968.44;;;12.17;83.31
80566;BME280;69915;54.862;10.730;2023-06-14T00:10:35;101971.44;;;12.25;83.13
80566;BME280;69915;54.862;10.730;2023-06-14T00:13:02;101967.03;;;12.29;82.98
80566;BME280;69915;54.862;10.730;2023-06-14T00:15:28;101976.66;;;12.22;82.82
80566;BME280;69915;54.862;10.730;2023-06-14T00:17:53;101973.63;;;12.03;82.91
80566;BME280;69915;54.862;10.730;2023-06-14T00:20:20;101949.75;;;11.78;83.79
80566;BME280;69915;54.862;10.730;2023-06-14T00:22:46;101976.91;;;12.00;84.03
80566;BME280;69915;54.862;10.730;2023-06-14T00:25:13;101976.66;;;12.02;83.39
80566;BME280;69915;54.862;10.730;2023-06-14T00:27:38;101985.13;;;12.00;84.14
80566;BME280;69915;54.862;10.730;2023-06-14T00:30:04;101965.13;;;11.94;84.10
80566;BME280;69915;54.862;10.730;2023-06-14T00:32:30;101961.00;;;11.92;83.66
80566;BME280;69915;54.862;10.730;2023-06-14T00:34:55;101973.59;;;11.88;83.09
80566;BME280;69915;54.862;10.730;2023-06-14T00:37:21;101967.56;;;11.96;84.15
80566;BME280;69915;54.862;10.730;2023-06-14T00:39:47;101975.81;;;12.06;82.57
80566;BME280;69915;54.862;10.730;2023-06-14T00:42:23;101965.63;;;11.81;83.11
80566;BME280;69915;54.862;10.730;2023-06-14T00:44:48;101973.06;;;11.86;83.31
80566;BME280;69915;54.862;10.730;2023-06-14T00:47:14;101967.28;;;11.87;83.61
80566;BME280;69915;54.862;10.730;2023-06-14T00:49:39;101965.13;;;11.94;83.40
80566;BME280;69915;54.862;10.730;2023-06-14T00:52:05;101980.47;;;12.06;83.81
80566;BME280;69915;54.862;10.730;2023-06-14T00:54:31;101974.72;;;12.07;84.35
80566;BME280;69915;54.862;10.730;2023-06-14T00:56:57;101982.41;;;12.10;84.96
80566;BME280;69915;54.862;10.730;2023-06-14T00:59:22;101979.41;;;12.17;84.89
80566;BME280;69915;54.862;10.730;2023-06-14T01:01:48;101968.41;;;12.12;85.18
80566;BME280;69915;54.862;10.730;2023-06-14T01:04:14;101973.63;;;12.23;84.88
80566;BME280;69915;54.862;10.730;2023-06-14T01:12:11;101985.69;;;12.57;84.13
80566;BME280;69915;54.862;10.730;2023-06-14T01:14:39;101976.38;;;12.53;83.91
80566;BME280;69915;54.862;10.730;2023-06-14T01:17:07;101978.56;;;12.57;83.14
80566;BME280;69915;54.862;10.730;2023-06-14T01:19:41;101990.88;;;12.69;83.19
80566;BME280;69915;54.862;10.730;2023-06-14T01:22:08;101981.03;;;12.53;83.21
80566;BME280;69915;54.862;10.730;2023-06-14T01:24:34;101973.38;;;12.40;83.65
80566;BME280;69915;54.862;10.730;2023-06-14T01:27:00;101981.59;;;12.35;84.30
80566;BME280;69915;54.862;10.730;2023-06-14T01:29:27;101987.09;;;12.20;84.38
80566;BME280;69915;54.862;10.730;2023-06-14T01:31:58;101982.66;;;12.09;84.90
80566;BME280;69915;54.862;10.730;2023-06-14T01:34:24;101980.47;;;11.95;85.26
80566;BME280;69915;54.862;10.730;2023-06-14T01:36:50;101970.31;;;11.91;85.30
80566;BME280;69915;54.862;10.730;2023-06-14T01:39:17;101987.88;;;12.05;85.63
80566;BME280;69915;54.862;10.730;2023-06-14T01:41:45;101974.72;;;12.07;84.91
80566;BME280;69915;54.862;10.730;2023-06-14T01:44:12;101980.50;;;12.11;84.85
80566;BME280;69915;54.862;10.730;2023-06-14T01:46:40;101983.50;;;12.14;84.80
80566;BME280;69915;54.862;10.730;2023-06-14T01:49:05;101985.69;;;12.17;84.78
80566;BME280;69915;54.862;10.730;2023-06-14T01:51:31;101981.03;;;12.18;84.32
80566;BME280;69915;54.862;10.730;2023-06-14T01:53:57;101973.63;;;12.13;84.41
80566;BME280;69915;54.862;10.730;2023-06-14T01:56:23;101962.66;;;12.18;84.25
80566;BME280;69915;54.862;10.730;2023-06-14T01:58:48;101982.97;;;12.37;84.45
80566;BME280;69915;54.862;10.730;2023-06-14T02:01:15;101985.44;;;12.44;83.70
80566;BME280;69915;54.862;10.730;2023-06-14T02:03:41;101963.75;;;12.42;83.68
80566;BME280;69915;54.862;10.730;2023-06-14T02:06:07;101982.41;;;12.40;83.65
80566;BME280;69915;54.862;10.730;2023-06-14T02:08:33;101982.41;;;12.45;84.05
80566;BME280;69915;54.862;10.730;2023-06-14T02:10:58;101981.31;;;12.31;84.28
80566;BME280;69915;54.862;10.730;2023-06-14T02:13:24;101978.03;;;12.19;84.43
80566;BME280;69915;54.862;10.730;2023-06-14T02:15:49;101974.16;;;12.20;84.47
80566;BME280;69915;54.862;10.730;2023-06-14T02:18:20;101988.44;;;12.17;84.83
80566;BME280;69915;54.862;10.730;2023-06-14T02:20:45;101980.22;;;12.07;85.00
80566;BME280;69915;54.862;10.730;2023-06-14T02:23:10;101974.72;;;11.97;84.60
80566;BME280;69915;54.862;10.730;2023-06-14T02:25:36;101985.66;;;11.97;84.92
80566;BME280;69915;54.862;10.730;2023-06-14T02:28:02;101979.38;;;11.96;84.34
80566;BME280;69915;54.862;10.730;2023-06-14T02:30:28;101973.59;;;11.93;85.16
80566;BME280;69915;54.862;10.730;2023-06-14T02:32:54;101986.22;;;11.94;84.96
80566;BME280;69915;54.862;10.730;2023-06-14T02:35:19;101986.22;;;11.99;84.92
80566;BME280;69915;54.862;10.730;2023-06-14T02:37:45;101987.31;;;11.98;85.27
80566;BME280;69915;54.862;10.730;2023-06-14T02:40:11;101977.44;;;11.77;85.48
80566;BME280;69915;54.862;10.730;2023-06-14T02:42:37;101983.44;;;11.84;85.66
80566;BME280;69915;54.862;10.730;2023-06-14T02:45:02;101991.66;;;11.84;85.62
80566;BME280;69915;54.862;10.730;2023-06-14T02:47:29;101987.84;;;11.85;85.73
80566;BME280;69915;54.862;10.730;2023-06-14T02:49:55;101986.19;;;11.84;85.72
80566;BME280;69915;54.862;10.730;2023-06-14T02:52:20;101989.50;;;11.86;85.55
80566;BME280;69915;54.862;10.730;2023-06-14T02:54:47;101977.97;;;11.79;85.65
80566;BME280;69915;54.862;10.730;2023-06-14T02:57:12;101996.91;;;11.85;85.62
80566;BME280;69915;54.862;10.730;2023-06-14T02:59:38;101986.19;;;11.84;85.03
80566;BME280;69915;54.862;10.730;2023-06-14T03:02:03;101995.56;;;12.13;85.60
80566;BME280;69915;54.862;10.730;2023-06-14T03:04:29;101990.38;;;12.47;84.06
80566;BME280;69915;54.862;10.730;2023-06-14T03:06:58;101995.03;;;12.57;83.23
80566;BME280;69915;54.862;10.730;2023-06-14T03:09:24;102002.72;;;12.49;83.80
80566;BME280;69915;54.862;10.730;2023-06-14T03:11:51;102001.63;;;12.55;84.23
80566;BME280;69915;54.862;10.730;2023-06-14T03:14:17;102001.31;;;12.77;83.78
80566;BME280;69915;54.862;10.730;2023-06-14T03:16:43;101987.19;;;13.34;81.24
80566;BME280;69915;54.862;10.730;2023-06-14T03:19:09;101987.75;;;14.24;77.45
80566;BME280;69915;54.862;10.730;2023-06-14T03:21:34;101979.38;;;14.97;74.34
80566;BME280;69915;54.862;10.730;2023-06-14T03:24:00;101977.97;;;15.23;73.26
80566;BME280;69915;54.862;10.730;2023-06-14T03:26:25;101972.28;;;15.62;71.88
80566;BME280;69915;54.862;10.730;2023-06-14T03:28:51;101978.25;;;15.88;70.57
80566;BME280;69915;54.862;10.730;2023-06-14T03:31:16;101973.22;;;16.27;69.54
80566;BME280;69915;54.862;10.730;2023-06-14T03:33:42;101975.63;;;16.66;67.72
80566;BME280;69915;54.862;10.730;2023-06-14T03:36:07;101980.78;;;17.13;66.34
80566;BME280;69915;54.862;10.730;2023-06-14T03:38:33;101957.94;;;17.49;64.81
80566;BME280;69915;54.862;10.730;2023-06-14T03:40:59;101971.16;;;17.65;64.49
80566;BME280;69915;54.862;10.730;2023-06-14T03:43:24;101979.19;;;17.89;63.90
80566;BME280;69915;54.862;10.730;2023-06-14T03:45:50;101983.56;;;18.48;62.25
80566;BME280;69915;54.862;10.730;2023-06-14T03:48:15;101986.50;;;18.65;61.47
80566;BME280;69915;54.862;10.730;2023-06-14T03:50:41;101996.28;;;19.02;60.81
80566;BME280;69915;54.862;10.730;2023-06-14T03:53:08;101987.47;;;19.00;60.42
80566;BME280;69915;54.862;10.730;2023-06-14T03:55:33;101989.56;;;19.34;58.94
80566;BME280;69915;54.862;10.730;2023-06-14T03:58:00;101985.25;;;19.67;58.96
80566;BME280;69915;54.862;10.730;2023-06-14T04:00:26;101979.56;;;19.72;58.25
80566;BME280;69915;54.862;10.730;2023-06-14T04:02:52;101974.69;;;20.03;58.33
80566;BME280;69915;54.862;10.730;2023-06-14T04:05:18;101986.94;;;20.37;56.91
80566;BME280;69915;54.862;10.730;2023-06-14T04:07:45;101978.75;;;20.57;55.61
80566;BME280;69915;54.862;10.730;2023-06-14T04:10:12;101993.41;;;20.75;55.17
80566;BME280;69915;54.862;10.730;2023-06-14T04:12:38;101991.34;;;21.01;54.63
80566;BME280;69915;54.862;10.730;2023-06-14T04:15:04;101984.97;;;21.01;54.54
80566;BME280;69915;54.862;10.730;2023-06-14T04:17:32;101978.66;;;21.59;53.80
80566;BME280;69915;54.862;10.730;2023-06-14T04:19:59;101987.78;;;22.30;51.13
80566;BME280;69915;54.862;10.730;2023-06-14T04:22:25;101984.13;;;21.17;53.59
80566;BME280;69915;54.862;10.730;2023-06-14T04:24:59;101996.25;;;22.01;52.08
80566;BME280;69915;54.862;10.730;2023-06-14T04:27:28;101986.06;;;21.55;53.01
80566;BME280;69915;54.862;10.730;2023-06-14T04:29:56;101995.09;;;21.52;53.03
80566;BME280;69915;54.862;10.730;2023-06-14T04:32:28;101991.22;;;22.15;51.64
80566;BME280;69915;54.862;10.730;2023-06-14T04:35:07;101992.44;;;22.59;50.17
80566;BME280;69915;54.862;10.730;2023-06-14T04:37:32;101988.41;;;22.15;51.43
80566;BME280;69915;54.862;10.730;2023-06-14T04:39:58;101990.91;;;22.49;50.30
80566;BME280;69915;54.862;10.730;2023-06-14T04:42:24;101996.91;;;22.72;49.96
80566;BME280;69915;54.862;10.730;2023-06-14T04:44:51;101990.28;;;23.46;48.53
80566;BME280;69915;54.862;10.730;2023-06-14T04:47:17;102009.47;;;24.23;46.80
80566;BME280;69915;54.862;10.730;2023-06-14T04:49:43;101999.56;;;23.13;47.29
80566;BME280;69915;54.862;10.730;2023-06-14T04:52:10;102003.50;;;22.35;50.99
80566;BME280;69915;54.862;10.730;2023-06-14T04:54:39;102000.59;;;23.21;48.30
80566;BME280;69915;54.862;10.730;2023-06-14T04:57:07;101997.34;;;23.31;47.71
80566;BME280;69915;54.862;10.730;2023-06-14T04:59:33;102021.19;;;22.51;48.14
80566;BME280;69915;54.862;10.730;2023-06-14T05:02:01;102000.69;;;23.00;48.58
80566;BME280;69915;54.862;10.730;2023-06-14T05:04:26;101997.44;;;22.98;48.35
80566;BME280;69915;54.862;10.730;2023-06-14T05:06:53;102000.50;;;23.17;47.22
80566;BME280;69915;54.862;10.730;2023-06-14T05:09:20;102018.44;;;22.63;47.44
80566;BME280;69915;54.862;10.730;2023-06-14T05:11:46;102009.03;;;22.55;48.42
80566;BME280;69915;54.862;10.730;2023-06-14T05:14:13;102025.00;;;22.67;48.17
80566;BME280;69915;54.862;10.730;2023-06-14T05:16:39;102007.84;;;23.46;46.48
80566;BME280;69915;54.862;10.730;2023-06-14T05:19:05;102019.38;;;23.45;46.71
80566;BME280;69915;54.862;10.730;2023-06-14T05:21:31;102022.47;;;22.41;49.21
80566;BME280;69915;54.862;10.730;2023-06-14T05:23:59;102020.69;;;22.37;49.80
80566;BME280;69915;54.862;10.730;2023-06-14T05:26:24;102030.25;;;21.56;50.85
80566;BME280;69915;54.862;10.730;2023-06-14T05:28:57;102031.00;;;21.65;50.54
80566;BME280;69915;54.862;10.730;2023-06-14T05:31:26;102024.31;;;21.29;52.32
80566;BME280;69915;54.862;10.730;2023-06-14T05:33:52;102039.09;;;21.58;51.01
80566;BME280;69915;54.862;10.730;2023-06-14T05:36:18;102027.28;;;21.24;51.54
80566;BME280;69915;54.862;10.730;2023-06-14T05:38:45;102033.63;;;20.78;53.39
80566;BME280;69915;54.862;10.730;2023-06-14T05:41:11;102033.97;;;20.76;53.12
80566;BME280;69915;54.862;10.730;2023-06-14T05:43:36;102040.47;;;20.80;53.41
80566;BME280;69915;54.862;10.730;2023-06-14T05:46:02;102037.69;;;20.80;53.13
80566;BME280;69915;54.862;10.730;2023-06-14T05:48:28;102034.19;;;21.17;51.71
80566;BME280;69915;54.862;10.730;2023-06-14T05:50:53;102041.88;;;21.50;52.45
80566;BME280;69915;54.862;10.730;2023-06-14T05:53:19;102021.06;;;20.63;54.91
80566;BME280;69915;54.862;10.730;2023-06-14T05:55:44;102042.47;;;20.11;56.23
80566;BME280;69915;54.862;10.730;2023-06-14T05:58:10;102042.13;;;20.13;56.95
80566;BME280;69915;54.862;10.730;2023-06-14T06:00:36;102053.56;;;20.02;58.19
80566;BME280;69915;54.862;10.730;2023-06-14T06:03:01;102040.00;;;19.92;59.03
80566;BME280;69915;54.862;10.730;2023-06-14T06:05:27;102030.50;;;19.85;58.53
80566;BME280;69915;54.862;10.730;2023-06-14T06:07:52;102058.97;;;19.51;60.23
80566;BME280;69915;54.862;10.730;2023-06-14T06:10:18;102054.97;;;19.74;60.05
80566;BME280;69915;54.862;10.730;2023-06-14T06:12:44;102060.25;;;19.45;59.26
80566;BME280;69915;54.862;10.730;2023-06-14T06:15:10;102041.19;;;19.43;58.71
80566;BME280;69915;54.862;10.730;2023-06-14T06:17:38;102044.72;;;19.35;59.29
80566;BME280;69915;54.862;10.730;2023-06-14T06:20:04;102058.41;;;19.80;59.85
80566;BME280;69915;54.862;10.730;2023-06-14T06:22:31;102054.25;;;19.51;58.92
80566;BME280;69915;54.862;10.730;2023-06-14T06:24:57;102053.28;;;19.47;60.72
80566;BME280;69915;54.862;10.730;2023-06-14T06:27:22;102051.63;;;19.16;60.42
80566;BME280;69915;54.862;10.730;2023-06-14T06:29:47;102057.41;;;19.67;59.95
80566;BME280;69915;54.862;10.730;2023-06-14T06:32:14;102058.66;;;19.52;59.61
80566;BME280;69915;54.862;10.730;2023-06-14T06:34:40;102060.34;;;19.31;60.66
80566;BME280;69915;54.862;10.730;2023-06-14T06:37:06;102062.53;;;19.43;60.22
80566;BME280;69915;54.862;10.730;2023-06-14T06:39:31;102058.50;;;19.58;60.38
80566;BME280;69915;54.862;10.730;2023-06-14T06:41:57;102071.91;;;19.64;59.92
80566;BME280;69915;54.862;10.730;2023-06-14T06:44:22;102064.88;;;19.58;60.07
80566;BME280;69915;54.862;10.730;2023-06-14T06:46:48;102061.28;;;19.58;59.54
80566;BME280;69915;54.862;10.730;2023-06-14T06:49:13;102060.47;;;19.57;60.02
80566;BME280;69915;54.862;10.730;2023-06-14T06:51:42;102066.25;;;19.38;61.13
80566;BME280;69915;54.862;10.730;2023-06-14T06:54:09;102064.84;;;19.49;60.77
80566;BME280;69915;54.862;10.730;2023-06-14T06:56:35;102069.47;;;19.63;60.56
80566;BME280;69915;54.862;10.730;2023-06-14T06:59:01;102072.44;;;19.75;60.62
80566;BME280;69915;54.862;10.730;2023-06-14T07:01:26;102071.63;;;19.66;60.42
80566;BME280;69915;54.862;10.730;2023-06-14T07:03:54;102062.19;;;19.84;60.84
80566;BME280;69915;54.862;10.730;2023-06-14T07:06:20;102055.81;;;19.83;60.87
80566;BME280;69915;54.862;10.730;2023-06-14T07:08:46;102062.03;;;19.97;59.10
80566;BME280;69915;54.862;10.730;2023-06-14T07:11:14;102065.16;;;20.13;59.83
80566;BME280;69915;54.862;10.730;2023-06-14T07:13:39;102080.41;;;20.33;58.23
80566;BME280;69915;54.862;10.730;2023-06-14T07:16:05;102067.94;;;20.22;58.74
80566;BME280;69915;54.862;10.730;2023-06-14T07:18:31;102079.63;;;19.76;59.30
80566;BME280;69915;54.862;10.730;2023-06-14T07:20:56;102065.88;;;19.62;59.29
80566;BME280;69915;54.862;10.730;2023-06-14T07:23:23;102083.94;;;19.90;59.16
80566;BME280;69915;54.862;10.730;2023-06-14T07:25:48;102085.16;;;19.76;59.93
80566;BME280;69915;54.862;10.730;2023-06-14T07:28:14;102071.34;;;19.84;58.80
80566;BME280;69915;54.862;10.730;2023-06-14T07:30:39;102081.16;;;20.07;58.59
80566;BME280;69915;54.862;10.730;2023-06-14T07:33:05;102082.47;;;19.93;58.81
80566;BME280;69915;54.862;10.730;2023-06-14T07:35:31;102077.09;;;20.14;57.89
80566;BME280;69915;54.862;10.730;2023-06-14T07:37:56;102083.34;;;20.28;56.58
80566;BME280;69915;54.862;10.730;2023-06-14T07:40:22;102080.59;;;20.45;57.27
80566;BME280;69915;54.862;10.730;2023-06-14T07:42:47;102090.06;;;20.35;56.77
80566;BME280;69915;54.862;10.730;2023-06-14T07:45:14;102081.88;;;20.56;56.88
80566;BME280;69915;54.862;10.730;2023-06-14T07:47:40;102082.19;;;20.72;55.51
80566;BME280;69915;54.862;10.730;2023-06-14T07:50:06;102100.81;;;20.97;56.53
80566;BME280;69915;54.862;10.730;2023-06-14T07:52:31;102089.53;;;20.93;55.42
80566;BME280;69915;54.862;10.730;2023-06-14T07:54:57;102098.66;;;21.02;55.05
80566;BME280;69915;54.862;10.730;2023-06-14T07:57:23;102087.69;;;21.06;55.98
80566;BME280;69915;54.862;10.730;2023-06-14T07:59:49;102079.66;;;21.22;55.80
80566;BME280;69915;54.862;10.730;2023-06-14T08:02:15;102088.41;;;21.41;53.89
80566;BME280;69915;54.862;10.730;2023-06-14T08:04:41;102090.16;;;21.54;53.96
80566;BME280;69915;54.862;10.730;2023-06-14T08:07:07;102088.25;;;21.46;54.33
80566;BME280;69915;54.862;10.730;2023-06-14T08:09:33;102095.53;;;21.97;53.00
80566;BME280;69915;54.862;10.730;2023-06-14T08:11:58;102080.63;;;22.01;52.29
80566;BME280;69915;54.862;10.730;2023-06-14T08:14:24;102086.38;;;21.96;52.71
80566;BME280;69915;54.862;10.730;2023-06-14T08:16:49;102091.19;;;22.91;51.22
80566;BME280;69915;54.862;10.730;2023-06-14T08:19:18;102085.78;;;22.53;51.24
80566;BME280;69915;54.862;10.730;2023-06-14T08:21:44;102085.78;;;22.53;51.68
80566;BME280;69915;54.862;10.730;2023-06-14T08:24:11;102082.25;;;22.44;50.05
80566;BME280;69915;54.862;10.730;2023-06-14T08:26:38;102090.41;;;22.49;51.00
80566;BME280;69915;54.862;10.730;2023-06-14T08:29:04;102084.31;;;22.35;51.54
80566;BME280;69915;54.862;10.730;2023-06-14T08:31:32;102081.72;;;22.30;51.64
80566;BME280;69915;54.862;10.730;2023-06-14T08:33:58;102087.47;;;22.45;51.24
80566;BME280;69915;54.862;10.730;2023-06-14T08:36:23;102093.66;;;22.09;51.59
80566;BME280;69915;54.862;10.730;2023-06-14T08:38:49;102094.75;;;22.17;51.36
80566;BME280;69915;54.862;10.730;2023-06-14T08:41:20;102088.16;;;22.21;51.84
80566;BME280;69915;54.862;10.730;2023-06-14T08:43:47;102076.28;;;22.33;51.23
80566;BME280;69915;54.862;10.730;2023-06-14T08:46:14;102076.66;;;22.85;51.50
80566;BME280;69915;54.862;10.730;2023-06-14T08:48:41;102074.84;;;23.01;49.39
80566;BME280;69915;54.862;10.730;2023-06-14T08:51:09;102078.09;;;23.03;50.48
80566;BME280;69915;54.862;10.730;2023-06-14T08:53:37;102079.59;;;23.01;50.57
80566;BME280;69915;54.862;10.730;2023-06-14T08:56:08;102070.84;;;22.78;50.85
80566;BME280;69915;54.862;10.730;2023-06-14T08:58:42;102082.25;;;23.30;50.25
80566;BME280;69915;54.862;10.730;2023-06-14T09:01:11;102072.28;;;23.90;48.08
80566;BME280;69915;54.862;10.730;2023-06-14T09:03:43;102093.50;;;23.21;48.19
80566;BME280;69915;54.862;10.730;2023-06-14T09:06:09;102081.69;;;22.92;48.82
80566;BME280;69915;54.862;10.730;2023-06-14T09:08:43;102084.25;;;23.42;48.49
80566;BME280;69915;54.862;10.730;2023-06-14T09:11:12;102087.25;;;22.92;47.83
80566;BME280;69915;54.862;10.730;2023-06-14T09:13:39;102087.84;;;22.97;48.91
80566;BME280;69915;54.862;10.730;2023-06-14T09:16:05;102079.66;;;22.80;46.86
80566;BME280;69915;54.862;10.730;2023-06-14T09:18:44;102097.53;;;22.79;46.81
80566;BME280;69915;54.862;10.730;2023-06-14T09:21:14;102075.97;;;22.88;47.60
80566;BME280;69915;54.862;10.730;2023-06-14T09:23:42;102092.56;;;23.17;46.31
80566;BME280;69915;54.862;10.730;2023-06-14T09:26:16;102087.19;;;23.12;45.25
80566;BME280;69915;54.862;10.730;2023-06-14T09:28:46;102098.22;;;23.54;44.76
80566;BME280;69915;54.862;10.730;2023-06-14T09:31:13;102094.66;;;23.20;44.30
80566;BME280;69915;54.862;10.730;2023-06-14T09:33:44;102096.25;;;23.09;44.92
80566;BME280;69915;54.862;10.730;2023-06-14T09:36:24;102109.75;;;22.74;44.71
80566;BME280;69915;54.862;10.730;2023-06-14T09:41:37;102115.81;;;22.27;45.29
80566;BME280;69915;54.862;10.730;2023-06-14T09:44:04;102108.84;;;22.41;45.55
80566;BME280;69915;54.862;10.730;2023-06-14T09:46:34;102112.84;;;22.73;44.21
80566;BME280;69915;54.862;10.730;2023-06-14T09:49:01;102090.28;;;22.66;45.81
80566;BME280;69915;54.862;10.730;2023-06-14T09:51:27;102087.38;;;22.95;44.38
80566;BME280;69915;54.862;10.730;2023-06-14T09:53:58;102094.38;;;23.01;45.00
80566;BME280;69915;54.862;10.730;2023-06-14T09:56:29;102089.53;;;23.22;45.08
80566;BME280;69915;54.862;10.730;2023-06-14T09:58:56;102087.88;;;24.03;43.93
80566;BME280;69915;54.862;10.730;2023-06-14T10:01:27;102079.16;;;23.80;44.61
80566;BME280;69915;54.862;10.730;2023-06-14T10:04:03;102080.53;;;23.86;43.16
80566;BME280;69915;54.862;10.730;2023-06-14T10:06:36;102096.38;;;23.94;44.17
80566;BME280;69915;54.862;10.730;2023-06-14T10:09:04;102102.28;;;23.93;45.20
80566;BME280;69915;54.862;10.730;2023-06-14T10:11:30;102099.28;;;23.61;43.55
80566;BME280;69915;54.862;10.730;2023-06-14T10:13:57;102100.44;;;23.48;44.52
80566;BME280;69915;54.862;10.730;2023-06-14T10:16:31;102079.59;;;23.58;44.59
80566;BME280;69915;54.862;10.730;2023-06-14T10:19:10;102091.69;;;23.98;43.71
80566;BME280;69915;54.862;10.730;2023-06-14T10:24:16;102091.47;;;23.67;44.63
80566;BME280;69915;54.862;10.730;2023-06-14T10:26:51;102064.94;;;23.73;43.89
80566;BME280;69915;54.862;10.730;2023-06-14T10:29:17;102068.34;;;24.43;45.17
80566;BME280;69915;54.862;10.730;2023-06-14T10:31:47;102084.47;;;24.09;43.89
80566;BME280;69915;54.862;10.730;2023-06-14T10:34:24;102078.72;;;24.70;42.85
80566;BME280;69915;54.862;10.730;2023-06-14T10:37:10;102068.09;;;25.03;42.15
80566;BME280;69915;54.862;10.730;2023-06-14T10:39:40;102069.31;;;24.62;41.74
80566;BME280;69915;54.862;10.730;2023-06-14T10:42:06;102066.31;;;24.55;43.26
80566;BME280;69915;54.862;10.730;2023-06-14T10:44:33;102070.16;;;24.78;42.28
80566;BME280;69915;54.862;10.730;2023-06-14T10:47:00;102070.38;;;24.58;41.42
80566;BME280;69915;54.862;10.730;2023-06-14T10:49:40;102075.38;;;24.64;41.76
80566;BME280;69915;54.862;10.730;2023-06-14T10:52:14;102065.09;;;24.96;43.43
80566;BME280;69915;54.862;10.730;2023-06-14T10:54:59;102059.69;;;24.48;41.94
80566;BME280;69915;54.862;10.730;2023-06-14T10:57:26;102067.22;;;24.59;41.25
80566;BME280;69915;54.862;10.730;2023-06-14T10:59:51;102061.53;;;24.56;41.71
80566;BME280;69915;54.862;10.730;2023-06-14T11:05:56;102071.69;;;24.48;41.53
80566;BME280;69915;54.862;10.730;2023-06-14T11:11:13;102060.50;;;23.96;42.09
80566;BME280;69915;54.862;10.730;2023-06-14T11:13:44;102068.41;;;24.06;42.59
80566;BME280;69915;54.862;10.730;2023-06-14T11:16:14;102057.50;;;24.41;40.54
80566;BME280;69915;54.862;10.730;2023-06-14T11:18:40;102066.91;;;24.21;41.58
80566;BME280;69915;54.862;10.730;2023-06-14T11:21:07;102056.53;;;24.21;41.29
80566;BME280;69915;54.862;10.730;2023-06-14T11:23:34;102048.31;;;24.41;40.77
80566;BME280;69915;54.862;10.730;2023-06-14T11:26:00;102048.41;;;24.44;42.02
80566;BME280;69915;54.862;10.730;2023-06-14T11:28:38;102039.47;;;24.38;40.13
80566;BME280;69915;54.862;10.730;2023-06-14T11:31:04;102039.03;;;24.92;39.52
80566;BME280;69915;54.862;10.730;2023-06-14T11:33:30;102053.44;;;24.38;40.52
80566;BME280;69915;54.862;10.730;2023-06-14T11:35:55;102049.84;;;24.66;40.72
80566;BME280;69915;54.862;10.730;2023-06-14T11:38:21;102041.75;;;24.76;39.32
80566;BME280;69915;54.862;10.730;2023-06-14T11:40:46;102041.63;;;25.48;39.31
80566;BME280;69915;54.862;10.730;2023-06-14T11:43:11;102039.50;;;25.25;38.36
80566;BME280;69915;54.862;10.730;2023-06-14T11:45:38;102033.81;;;25.37;38.82
80566;BME280;69915;54.862;10.730;2023-06-14T11:48:04;102031.41;;;26.40;36.22
80566;BME280;69915;54.862;10.730;2023-06-14T11:50:31;102032.28;;;26.83;35.36
80566;BME280;69915;54.862;10.730;2023-06-14T11:53:01;102030.91;;;26.54;37.02
80566;BME280;69915;54.862;10.730;2023-06-14T11:55:36;102035.81;;;26.61;34.41
80566;BME280;69915;54.862;10.730;2023-06-14T11:58:02;102043.34;;;26.18;35.51
80566;BME280;69915;54.862;10.730;2023-06-14T12:00:28;102039.31;;;25.18;37.35
80566;BME280;69915;54.862;10.730;2023-06-14T12:02:55;102036.94;;;25.20;38.20
80566;BME280;69915;54.862;10.730;2023-06-14T12:05:24;102039.03;;;24.80;38.09
80566;BME280;69915;54.862;10.730;2023-06-14T12:08:01;102058.63;;;25.23;37.09
80566;BME280;69915;54.862;10.730;2023-06-14T12:10:28;102033.25;;;25.32;38.48
80566;BME280;69915;54.862;10.730;2023-06-14T12:12:57;102026.47;;;25.64;36.47
80566;BME280;69915;54.862;10.730;2023-06-14T12:15:23;102021.97;;;24.97;37.88
80566;BME280;69915;54.862;10.730;2023-06-14T12:17:49;102024.22;;;25.07;38.08
80566;BME280;69915;54.862;10.730;2023-06-14T12:20:15;102028.00;;;24.99;37.28
80566;BME280;69915;54.862;10.730;2023-06-14T12:22:54;102035.19;;;24.84;37.72
80566;BME280;69915;54.862;10.730;2023-06-14T12:25:30;102034.94;;;24.62;37.94
80566;BME280;69915;54.862;10.730;2023-06-14T12:28:05;102034.59;;;24.35;37.76
80566;BME280;69915;54.862;10.730;2023-06-14T12:30:32;102018.00;;;24.15;39.20
80566;BME280;69915;54.862;10.730;2023-06-14T12:32:57;102009.97;;;24.69;37.53
80566;BME280;69915;54.862;10.730;2023-06-14T12:35:23;102022.69;;;24.66;37.82
80566;BME280;69915;54.862;10.730;2023-06-14T12:37:48;102021.22;;;24.29;38.56
80566;BME280;69915;54.862;10.730;2023-06-14T12:40:14;102028.59;;;24.21;38.20
80566;BME280;69915;54.862;10.730;2023-06-14T12:42:40;102020.28;;;23.85;38.67
80566;BME280;69915;54.862;10.730;2023-06-14T12:45:06;102024.66;;;23.86;39.62
80566;BME280;69915;54.862;10.730;2023-06-14T12:47:31;102025.66;;;24.30;38.45
80566;BME280;69915;54.862;10.730;2023-06-14T12:50:00;102012.50;;;24.30;38.76
80566;BME280;69915;54.862;10.730;2023-06-14T12:52:26;102022.66;;;24.11;38.89
80566;BME280;69915;54.862;10.730;2023-06-14T12:54:52;102007.78;;;24.34;37.41
80566;BME280;69915;54.862;10.730;2023-06-14T12:57:17;102015.06;;;24.51;38.11